Apollon Hellas — SWFP — position and weather

sailwx.info

Track history (hours):
 
Tides and Currents Weather Stations Pressure Air Temp Water Temp Dewpoint Dewpoint Depression Visibility Wind Speed Wind Dir Waves Ship Positions

Apollon Hellas

Last reported at 2018-Feb-24 06:30 UTC. Time now 2018-Feb-24 06:45 UTC.
Position N 37°57' E 023°38'.

Length 92 m; draft 4 m.

Type: Ship. MMSI: 237002600.

Date/timePositionNaut miles runAvg speedWind from/ knotsBaromVisibWave heightAir tempDewpointWater temp
2018-Feb-24 06:30N 37°57' E 023°38'0 0.0
2018-Feb-24 06:00N 37°57' E 023°38'0 0.0
2018-Feb-23 18:38N 37°57' E 023°38'0 0.7
2018-Feb-23 18:30N 37°57' E 023°38'612.5
2018-Feb-23 18:00N 37°52' E 023°33'713.9
2018-Feb-23 17:30N 37°47' E 023°27'3 5.8
2018-Feb-23 17:00N 37°45' E 023°25'612.3
2018-Feb-23 16:31N 37°49' E 023°30'713.7
2018-Feb-23 16:00N 37°55' E 023°36'3 6.2
2018-Feb-23 15:30N 37°57' E 023°38'0 0.0
2018-Feb-23 15:00N 37°57' E 023°38'0 0.4
2018-Feb-23 14:30N 37°57' E 023°38'612.8
2018-Feb-23 14:00N 37°52' E 023°33'714.0
2018-Feb-23 13:31N 37°47' E 023°26'3 5.7
2018-Feb-23 13:01N 37°44' E 023°25'713.9
2018-Feb-23 12:30N 37°37' E 023°25'5 9.6
2018-Feb-23 12:00N 37°33' E 023°25'3 4.4
2018-Feb-23 11:20N 37°30' E 023°27'0 0.0
2018-Feb-23 11:00N 37°30' E 023°27'0 0.0
2018-Feb-23 10:26N 37°30' E 023°27'3 5.9
2018-Feb-23 10:00N 37°32' E 023°25'5 9.6
2018-Feb-23 09:30N 37°37' E 023°25'713.9
2018-Feb-23 09:00N 37°44' E 023°25'3 6.4
2018-Feb-23 08:30N 37°47' E 023°26'714.0
2018-Feb-23 08:00N 37°52' E 023°33'713.1
2018-Feb-23 07:30N 37°57' E 023°38'0 0.1
2018-Feb-23 07:00N 37°57' E 023°38'0 0.0
2018-Feb-23 06:29N 37°57' E 023°38'0 0.0
2018-Feb-22 14:43N 37°57' E 023°38'1 4.6
2018-Feb-22 14:30N 37°56' E 023°37'713.9
2018-Feb-22 14:00N 37°51' E 023°32'713.9
2018-Feb-22 13:30N 37°46' E 023°25'2 3.1
2018-Feb-22 13:00N 37°45' E 023°25'4 7.3
2018-Feb-22 12:30N 37°48' E 023°28'713.9
2018-Feb-22 12:00N 37°53' E 023°34'510.6
2018-Feb-22 11:30N 37°57' E 023°38'0 0.0
2018-Feb-22 11:00N 37°57' E 023°38'0 0.0
2018-Feb-22 10:30N 37°57' E 023°38'0 0.0
2018-Feb-21 14:39N 37°57' E 023°38'0 2.9
2018-Feb-21 14:30N 37°56' E 023°38'713.3
2018-Feb-21 14:00N 37°51' E 023°33'714.0
2018-Feb-21 13:30N 37°47' E 023°26'2 4.2
2018-Feb-21 13:00N 37°45' E 023°25'3 5.1
2018-Feb-21 12:30N 37°47' E 023°27'714.0
2018-Feb-21 12:00N 37°52' E 023°33'612.7
2018-Feb-21 11:30N 37°57' E 023°38'0 0.1
2018-Feb-21 11:00N 37°57' E 023°38'0 0.0
2018-Feb-21 10:30N 37°57' E 023°38'0 0.0
2018-Feb-20 16:42N 37°57' E 023°38'0 2.4
2018-Feb-20 16:30N 37°56' E 023°38'713.2
2018-Feb-20 16:00N 37°51' E 023°32'713.8
2018-Feb-20 15:30N 37°47' E 023°26'2 4.2
2018-Feb-20 15:00N 37°45' E 023°25'4 7.6
2018-Feb-20 14:30N 37°48' E 023°28'714.0
2018-Feb-20 14:00N 37°53' E 023°34'510.1
2018-Feb-20 13:31N 37°57' E 023°39'3 5.0
2018-Feb-20 13:00N 37°55' E 023°36'713.8
2018-Feb-20 12:30N 37°50' E 023°31'612.9
2018-Feb-20 12:00N 37°45' E 023°25'0 1.0
2018-Feb-20 11:30N 37°45' E 023°25'2 4.8
2018-Feb-20 11:01N 37°47' E 023°26'714.0
2018-Feb-20 10:30N 37°52' E 023°33'713.1
2018-Feb-20 10:00N 37°57' E 023°38'0 0.1
2018-Feb-20 09:30N 37°57' E 023°38'0 0.0
2018-Feb-20 09:00N 37°57' E 023°38'0 0.4
2018-Feb-20 08:30N 37°57' E 023°38'612.8
2018-Feb-20 08:00N 37°52' E 023°33'713.7
2018-Feb-20 07:30N 37°47' E 023°27'3 4.9
2018-Feb-20 07:00N 37°45' E 023°25'1 1.7
2018-Feb-20 06:30N 37°45' E 023°25'713.8
2018-Feb-20 06:00N 37°50' E 023°31'714.1
2018-Feb-20 05:30N 37°56' E 023°37'2 3.3
2018-Feb-20 05:00N 37°57' E 023°38'0 0.0
2018-Feb-19 18:18N 37°57' E 023°38'0 1.1
2018-Feb-19 18:00N 37°57' E 023°38'613.0
2018-Feb-19 17:30N 37°52' E 023°33'713.7
2018-Feb-19 17:00N 37°47' E 023°26'2 4.9
2018-Feb-19 16:30N 37°45' E 023°25'2 3.4
2018-Feb-19 16:01N 37°46' E 023°25'714.1
2018-Feb-19 15:31N 37°51' E 023°32'713.7
2018-Feb-19 15:00N 37°56' E 023°38'1 1.3
2018-Feb-19 14:30N 37°57' E 023°38'4 8.0
2018-Feb-19 14:00N 37°54' E 023°35'713.8
2018-Feb-19 13:30N 37°49' E 023°29'5 9.8
2018-Feb-19 13:01N 37°45' E 023°25'3 6.2
2018-Feb-19 12:30N 37°42' E 023°25'8 9.5
2018-Feb-19 11:42N 37°34' E 023°24'313.6
2018-Feb-19 11:31N 37°31' E 023°25'1 1.8
2018-Feb-19 10:59N 37°31' E 023°26'5 9.6
2018-Feb-19 10:26N 37°36' E 023°25'613.9
2018-Feb-19 10:01N 37°42' E 023°25'4 8.4
2018-Feb-19 09:30N 37°46' E 023°25'713.9
2018-Feb-19 09:01N 37°51' E 023°32'713.9
2018-Feb-19 08:30N 37°56' E 023°37'1 2.8
2018-Feb-19 08:00N 37°57' E 023°38'0 0.0
2018-Feb-19 07:30N 37°57' E 023°38'0 0.0
2018-Feb-19 07:00N 37°57' E 023°38'0 0.0
2018-Feb-18 18:39N 37°57' E 023°38'0 0.0
2018-Feb-18 18:30N 37°57' E 023°38'611.4
2018-Feb-18 18:00N 37°53' E 023°34'714.1
2018-Feb-18 17:30N 37°48' E 023°27'3 6.4
2018-Feb-18 17:00N 37°45' E 023°25'3 6.2
2018-Feb-18 16:31N 37°48' E 023°27'713.8
2018-Feb-18 16:00N 37°52' E 023°33'611.8
2018-Feb-18 15:30N 37°57' E 023°38'3 5.9
2018-Feb-18 15:00N 37°55' E 023°36'714.1
2018-Feb-18 14:30N 37°49' E 023°30'611.6
2018-Feb-18 14:01N 37°45' E 023°25'0 0.0
2018-Feb-18 13:30N 37°45' E 023°25'2 4.9
2018-Feb-18 13:00N 37°47' E 023°26'713.9
2018-Feb-18 12:30N 37°52' E 023°33'713.1
2018-Feb-18 12:00N 37°57' E 023°38'0 0.1
2018-Feb-18 11:30N 37°57' E 023°38'0 0.0
2018-Feb-18 11:00N 37°57' E 023°38'0 0.0
2018-Feb-18 10:30N 37°57' E 023°38'3 6.1
2018-Feb-18 10:00N 37°55' E 023°36'714.0
2018-Feb-18 09:30N 37°49' E 023°30'611.5
2018-Feb-18 09:00N 37°45' E 023°25'0 0.2
2018-Feb-18 08:30N 37°45' E 023°25'611.9
2018-Feb-18 08:00N 37°49' E 023°30'714.0
2018-Feb-18 07:30N 37°55' E 023°36'3 6.0
2018-Feb-18 07:01N 37°57' E 023°38'0 0.0
2018-Feb-18 06:31N 37°57' E 023°38'0 0.0
2018-Feb-17 18:59N 37°57' E 023°38'4 9.0
2018-Feb-17 18:30N 37°54' E 023°35'713.7
2018-Feb-17 18:00N 37°49' E 023°29'5 9.5
2018-Feb-17 17:30N 37°45' E 023°25'2 4.7
2018-Feb-17 17:00N 37°47' E 023°26'714.1
2018-Feb-17 16:30N 37°52' E 023°33'713.3
2018-Feb-17 16:00N 37°57' E 023°38'0 0.1
2018-Feb-17 15:30N 37°57' E 023°38'0 0.0
2018-Feb-17 15:00N 37°57' E 023°38'0 0.0
2018-Feb-17 14:30N 37°57' E 023°38'0 0.0
2018-Feb-17 14:00N 37°57' E 023°38'1 1.9
2018-Feb-17 13:30N 37°56' E 023°37'713.6
2018-Feb-17 13:00N 37°51' E 023°32'713.7
2018-Feb-17 12:30N 37°46' E 023°25'2 3.6
2018-Feb-17 12:00N 37°45' E 023°25'611.6
2018-Feb-17 11:30N 37°49' E 023°30'714.1
2018-Feb-17 11:00N 37°55' E 023°36'3 6.1
2018-Feb-17 10:30N 37°57' E 023°38'1 1.4
2018-Feb-17 10:00N 37°56' E 023°38'713.4
2018-Feb-17 09:31N 37°51' E 023°33'713.8
2018-Feb-17 09:00N 37°47' E 023°26'2 3.9
2018-Feb-17 08:30N 37°45' E 023°25'611.2
2018-Feb-17 08:00N 37°49' E 023°30'714.0
2018-Feb-17 07:30N 37°54' E 023°36'3 6.3
2018-Feb-17 07:00N 37°57' E 023°38'0 0.0
2018-Feb-17 06:30N 37°57' E 023°38'0 0.0
2018-Feb-16 19:23N 37°57' E 023°38'2 5.8
2018-Feb-16 19:01N 37°55' E 023°36'713.5
2018-Feb-16 18:30N 37°50' E 023°31'713.3
2018-Feb-16 18:00N 37°46' E 023°25'0 0.2
2018-Feb-16 17:31N 37°46' E 023°25'714.0
2018-Feb-16 17:00N 37°50' E 023°31'714.2
2018-Feb-16 16:30N 37°56' E 023°37'2 3.0
2018-Feb-16 16:00N 37°57' E 023°38'0 0.0
2018-Feb-16 15:30N 37°57' E 023°38'1 2.9
2018-Feb-16 15:00N 37°56' E 023°37'613.1
2018-Feb-16 14:30N 37°51' E 023°32'713.4
2018-Feb-16 14:01N 37°47' E 023°26'2 3.7
2018-Feb-16 13:31N 37°45' E 023°25'4 7.7
2018-Feb-16 13:00N 37°48' E 023°28'714.0
2018-Feb-16 12:30N 37°53' E 023°34'5 9.8
2018-Feb-16 12:00N 37°57' E 023°38'0 0.0
2018-Feb-16 11:30N 37°57' E 023°38'0 0.0
2018-Feb-16 11:00N 37°57' E 023°38'5 9.5
2018-Feb-16 10:30N 37°53' E 023°34'713.3
2018-Feb-16 10:00N 37°48' E 023°29'4 8.5
2018-Feb-16 09:30N 37°45' E 023°25'0 0.0
2018-Feb-16 09:00N 37°45' E 023°25'4 8.4
2018-Feb-16 08:31N 37°48' E 023°28'714.1
2018-Feb-16 08:01N 37°53' E 023°34'5 9.2
2018-Feb-16 07:30N 37°57' E 023°38'0 0.0
2018-Feb-16 06:58N 37°57' E 023°38'0 0.0
2018-Feb-16 06:30N 37°57' E 023°38'0 0.0
2018-Feb-15 14:56N 37°57' E 023°38'2 4.8
2018-Feb-15 14:30N 37°55' E 023°37'612.7
2018-Feb-15 14:00N 37°49' E 023°34'713.7
2018-Feb-15 13:30N 37°46' E 023°26'2 3.4
2018-Feb-15 13:00N 37°45' E 023°25'4 8.1
2018-Feb-15 12:30N 37°48' E 023°28'713.8
2018-Feb-15 12:01N 37°53' E 023°34'510.0
2018-Feb-15 11:31N 37°57' E 023°39'0 0.0
2018-Feb-15 11:01N 37°57' E 023°39'0 0.0
2018-Feb-15 10:31N 37°57' E 023°39'0 0.0
2018-Feb-15 10:01N 37°57' E 023°39'0 0.0
2018-Feb-15 09:30N 37°57' E 023°39'0 0.0
2018-Feb-15 09:01N 37°57' E 023°39'0 0.1
2018-Feb-15 08:31N 37°57' E 023°38'612.0
2018-Feb-15 08:00N 37°51' E 023°36'713.6
2018-Feb-15 07:30N 37°48' E 023°28'4 7.4
2018-Feb-15 07:00N 37°45' E 023°25'2 3.6
2018-Feb-15 06:30N 37°46' E 023°26'713.8
2018-Feb-15 06:00N 37°51' E 023°32'7 0.6
2018-Feb-14 18:14N 37°56' E 023°38'313.2
2018-Feb-14 18:00N 37°54' E 023°35'713.8
2018-Feb-14 17:30N 37°49' E 023°29'510.6
2018-Feb-14 17:01N 37°45' E 023°25'2 4.8
2018-Feb-14 16:30N 37°47' E 023°26'713.9
2018-Feb-14 16:00N 37°52' E 023°33'713.2
2018-Feb-14 15:30N 37°57' E 023°38'0 0.2
2018-Feb-14 15:00N 37°57' E 023°38'0 0.0
2018-Feb-14 14:30N 37°57' E 023°38'3 6.5
2018-Feb-14 14:00N 37°54' E 023°36'713.7
2018-Feb-14 13:30N 37°49' E 023°30'611.4
2018-Feb-14 13:00N 37°45' E 023°25'3 5.1
2018-Feb-14 12:30N 37°47' E 023°27'713.7
2018-Feb-14 12:01N 37°52' E 023°33'713.0
2018-Feb-14 11:30N 37°57' E 023°38'0 0.2
2018-Feb-14 11:00N 37°57' E 023°38'0 0.0
2018-Feb-14 10:30N 37°57' E 023°38'0 0.0
2018-Feb-14 10:00N 37°57' E 023°38'0 0.0
2018-Feb-14 09:30N 37°57' E 023°38'0 0.0
2018-Feb-14 09:00N 37°57' E 023°38'0 0.0
2018-Feb-14 08:30N 37°57' E 023°38'5 9.3
2018-Feb-14 08:00N 37°53' E 023°34'713.8
2018-Feb-14 07:30N 37°48' E 023°29'4 8.7
2018-Feb-14 07:00N 37°45' E 023°25'2 4.3
2018-Feb-14 06:31N 37°47' E 023°26'  
Track history (hours):
 
Tides and Currents Weather Stations Pressure Air Temp Water Temp Dewpoint Dewpoint Depression Visibility Wind Speed Wind Dir Waves Ship Positions

Apollon Hellas

Last reported at 2018-Feb-24 06:30 UTC. Time now 2018-Feb-24 06:45 UTC.
Position N 37°57' E 023°38'.

Length 92 m; draft 4 m.

Type: Ship. MMSI: 237002600.

Date/timePositionNaut miles runAvg speedWind from/ knotsBaromVisibWave heightAir tempDewpointWater temp
2018-Feb-24 06:30N 37°57' E 023°38'0 0.0
2018-Feb-24 06:00N 37°57' E 023°38'0 0.0
2018-Feb-23 18:38N 37°57' E 023°38'0 0.7
2018-Feb-23 18:30N 37°57' E 023°38'612.5
2018-Feb-23 18:00N 37°52' E 023°33'713.9
2018-Feb-23 17:30N 37°47' E 023°27'3 5.8
2018-Feb-23 17:00N 37°45' E 023°25'612.3
2018-Feb-23 16:31N 37°49' E 023°30'713.7
2018-Feb-23 16:00N 37°55' E 023°36'3 6.2
2018-Feb-23 15:30N 37°57' E 023°38'0 0.0
2018-Feb-23 15:00N 37°57' E 023°38'0 0.4
2018-Feb-23 14:30N 37°57' E 023°38'612.8
2018-Feb-23 14:00N 37°52' E 023°33'714.0
2018-Feb-23 13:31N 37°47' E 023°26'3 5.7
2018-Feb-23 13:01N 37°44' E 023°25'713.9
2018-Feb-23 12:30N 37°37' E 023°25'5 9.6
2018-Feb-23 12:00N 37°33' E 023°25'3 4.4
2018-Feb-23 11:20N 37°30' E 023°27'0 0.0
2018-Feb-23 11:00N 37°30' E 023°27'0 0.0
2018-Feb-23 10:26N 37°30' E 023°27'3 5.9
2018-Feb-23 10:00N 37°32' E 023°25'5 9.6
2018-Feb-23 09:30N 37°37' E 023°25'713.9
2018-Feb-23 09:00N 37°44' E 023°25'3 6.4
2018-Feb-23 08:30N 37°47' E 023°26'714.0
2018-Feb-23 08:00N 37°52' E 023°33'713.1
2018-Feb-23 07:30N 37°57' E 023°38'0 0.1
2018-Feb-23 07:00N 37°57' E 023°38'0 0.0
2018-Feb-23 06:29N 37°57' E 023°38'0 0.0
2018-Feb-22 14:43N 37°57' E 023°38'1 4.6
2018-Feb-22 14:30N 37°56' E 023°37'713.9
2018-Feb-22 14:00N 37°51' E 023°32'713.9
2018-Feb-22 13:30N 37°46' E 023°25'2 3.1
2018-Feb-22 13:00N 37°45' E 023°25'4 7.3
2018-Feb-22 12:30N 37°48' E 023°28'713.9
2018-Feb-22 12:00N 37°53' E 023°34'510.6
2018-Feb-22 11:30N 37°57' E 023°38'0 0.0
2018-Feb-22 11:00N 37°57' E 023°38'0 0.0
2018-Feb-22 10:30N 37°57' E 023°38'0 0.0
2018-Feb-21 14:39N 37°57' E 023°38'0 2.9
2018-Feb-21 14:30N 37°56' E 023°38'713.3
2018-Feb-21 14:00N 37°51' E 023°33'714.0
2018-Feb-21 13:30N 37°47' E 023°26'2 4.2
2018-Feb-21 13:00N 37°45' E 023°25'3 5.1
2018-Feb-21 12:30N 37°47' E 023°27'714.0
2018-Feb-21 12:00N 37°52' E 023°33'612.7
2018-Feb-21 11:30N 37°57' E 023°38'0 0.1
2018-Feb-21 11:00N 37°57' E 023°38'0 0.0
2018-Feb-21 10:30N 37°57' E 023°38'0 0.0
2018-Feb-20 16:42N 37°57' E 023°38'0 2.4
2018-Feb-20 16:30N 37°56' E 023°38'713.2
2018-Feb-20 16:00N 37°51' E 023°32'713.8
2018-Feb-20 15:30N 37°47' E 023°26'2 4.2
2018-Feb-20 15:00N 37°45' E 023°25'4 7.6
2018-Feb-20 14:30N 37°48' E 023°28'714.0
2018-Feb-20 14:00N 37°53' E 023°34'510.1
2018-Feb-20 13:31N 37°57' E 023°39'3 5.0
2018-Feb-20 13:00N 37°55' E 023°36'713.8
2018-Feb-20 12:30N 37°50' E 023°31'612.9
2018-Feb-20 12:00N 37°45' E 023°25'0 1.0
2018-Feb-20 11:30N 37°45' E 023°25'2 4.8
2018-Feb-20 11:01N 37°47' E 023°26'714.0
2018-Feb-20 10:30N 37°52' E 023°33'713.1
2018-Feb-20 10:00N 37°57' E 023°38'0 0.1
2018-Feb-20 09:30N 37°57' E 023°38'0 0.0
2018-Feb-20 09:00N 37°57' E 023°38'0 0.4
2018-Feb-20 08:30N 37°57' E 023°38'612.8
2018-Feb-20 08:00N 37°52' E 023°33'713.7
2018-Feb-20 07:30N 37°47' E 023°27'3 4.9
2018-Feb-20 07:00N 37°45' E 023°25'1 1.7
2018-Feb-20 06:30N 37°45' E 023°25'713.8
2018-Feb-20 06:00N 37°50' E 023°31'714.1
2018-Feb-20 05:30N 37°56' E 023°37'2 3.3
2018-Feb-20 05:00N 37°57' E 023°38'0 0.0
2018-Feb-19 18:18N 37°57' E 023°38'0 1.1
2018-Feb-19 18:00N 37°57' E 023°38'613.0
2018-Feb-19 17:30N 37°52' E 023°33'713.7
2018-Feb-19 17:00N 37°47' E 023°26'2 4.9
2018-Feb-19 16:30N 37°45' E 023°25'2 3.4
2018-Feb-19 16:01N 37°46' E 023°25'714.1
2018-Feb-19 15:31N 37°51' E 023°32'713.7
2018-Feb-19 15:00N 37°56' E 023°38'1 1.3
2018-Feb-19 14:30N 37°57' E 023°38'4 8.0
2018-Feb-19 14:00N 37°54' E 023°35'713.8
2018-Feb-19 13:30N 37°49' E 023°29'5 9.8
2018-Feb-19 13:01N 37°45' E 023°25'3 6.2
2018-Feb-19 12:30N 37°42' E 023°25'8 9.5
2018-Feb-19 11:42N 37°34' E 023°24'313.6
2018-Feb-19 11:31N 37°31' E 023°25'1 1.8
2018-Feb-19 10:59N 37°31' E 023°26'5 9.6
2018-Feb-19 10:26N 37°36' E 023°25'613.9
2018-Feb-19 10:01N 37°42' E 023°25'4 8.4
2018-Feb-19 09:30N 37°46' E 023°25'713.9
2018-Feb-19 09:01N 37°51' E 023°32'713.9
2018-Feb-19 08:30N 37°56' E 023°37'1 2.8
2018-Feb-19 08:00N 37°57' E 023°38'0 0.0
2018-Feb-19 07:30N 37°57' E 023°38'0 0.0
2018-Feb-19 07:00N 37°57' E 023°38'0 0.0
2018-Feb-18 18:39N 37°57' E 023°38'0 0.0
2018-Feb-18 18:30N 37°57' E 023°38'611.4
2018-Feb-18 18:00N 37°53' E 023°34'714.1
2018-Feb-18 17:30N 37°48' E 023°27'3 6.4
2018-Feb-18 17:00N 37°45' E 023°25'3 6.2
2018-Feb-18 16:31N 37°48' E 023°27'713.8
2018-Feb-18 16:00N 37°52' E 023°33'611.8
2018-Feb-18 15:30N 37°57' E 023°38'3 5.9
2018-Feb-18 15:00N 37°55' E 023°36'714.1
2018-Feb-18 14:30N 37°49' E 023°30'611.6
2018-Feb-18 14:01N 37°45' E 023°25'0 0.0
2018-Feb-18 13:30N 37°45' E 023°25'2 4.9
2018-Feb-18 13:00N 37°47' E 023°26'713.9
2018-Feb-18 12:30N 37°52' E 023°33'713.1
2018-Feb-18 12:00N 37°57' E 023°38'0 0.1
2018-Feb-18 11:30N 37°57' E 023°38'0 0.0
2018-Feb-18 11:00N 37°57' E 023°38'0 0.0
2018-Feb-18 10:30N 37°57' E 023°38'3 6.1
2018-Feb-18 10:00N 37°55' E 023°36'714.0
2018-Feb-18 09:30N 37°49' E 023°30'611.5
2018-Feb-18 09:00N 37°45' E 023°25'0 0.2
2018-Feb-18 08:30N 37°45' E 023°25'611.9
2018-Feb-18 08:00N 37°49' E 023°30'714.0
2018-Feb-18 07:30N 37°55' E 023°36'3 6.0
2018-Feb-18 07:01N 37°57' E 023°38'0 0.0
2018-Feb-18 06:31N 37°57' E 023°38'0 0.0
2018-Feb-17 18:59N 37°57' E 023°38'4 9.0
2018-Feb-17 18:30N 37°54' E 023°35'713.7
2018-Feb-17 18:00N 37°49' E 023°29'5 9.5
2018-Feb-17 17:30N 37°45' E 023°25'2 4.7
2018-Feb-17 17:00N 37°47' E 023°26'714.1
2018-Feb-17 16:30N 37°52' E 023°33'713.3
2018-Feb-17 16:00N 37°57' E 023°38'0 0.1
2018-Feb-17 15:30N 37°57' E 023°38'0 0.0
2018-Feb-17 15:00N 37°57' E 023°38'0 0.0
2018-Feb-17 14:30N 37°57' E 023°38'0 0.0
2018-Feb-17 14:00N 37°57' E 023°38'1 1.9
2018-Feb-17 13:30N 37°56' E 023°37'713.6
2018-Feb-17 13:00N 37°51' E 023°32'713.7
2018-Feb-17 12:30N 37°46' E 023°25'2 3.6
2018-Feb-17 12:00N 37°45' E 023°25'611.6
2018-Feb-17 11:30N 37°49' E 023°30'714.1
2018-Feb-17 11:00N 37°55' E 023°36'3 6.1
2018-Feb-17 10:30N 37°57' E 023°38'1 1.4
2018-Feb-17 10:00N 37°56' E 023°38'713.4
2018-Feb-17 09:31N 37°51' E 023°33'713.8
2018-Feb-17 09:00N 37°47' E 023°26'2 3.9
2018-Feb-17 08:30N 37°45' E 023°25'611.2
2018-Feb-17 08:00N 37°49' E 023°30'714.0
2018-Feb-17 07:30N 37°54' E 023°36'3 6.3
2018-Feb-17 07:00N 37°57' E 023°38'0 0.0
2018-Feb-17 06:30N 37°57' E 023°38'0 0.0
2018-Feb-16 19:23N 37°57' E 023°38'2 5.8
2018-Feb-16 19:01N 37°55' E 023°36'713.5
2018-Feb-16 18:30N 37°50' E 023°31'713.3
2018-Feb-16 18:00N 37°46' E 023°25'0 0.2
2018-Feb-16 17:31N 37°46' E 023°25'714.0
2018-Feb-16 17:00N 37°50' E 023°31'714.2
2018-Feb-16 16:30N 37°56' E 023°37'2 3.0
2018-Feb-16 16:00N 37°57' E 023°38'0 0.0
2018-Feb-16 15:30N 37°57' E 023°38'1 2.9
2018-Feb-16 15:00N 37°56' E 023°37'613.1
2018-Feb-16 14:30N 37°51' E 023°32'713.4
2018-Feb-16 14:01N 37°47' E 023°26'2 3.7
2018-Feb-16 13:31N 37°45' E 023°25'4 7.7
2018-Feb-16 13:00N 37°48' E 023°28'714.0
2018-Feb-16 12:30N 37°53' E 023°34'5 9.8
2018-Feb-16 12:00N 37°57' E 023°38'0 0.0
2018-Feb-16 11:30N 37°57' E 023°38'0 0.0
2018-Feb-16 11:00N 37°57' E 023°38'5 9.5
2018-Feb-16 10:30N 37°53' E 023°34'713.3
2018-Feb-16 10:00N 37°48' E 023°29'4 8.5
2018-Feb-16 09:30N 37°45' E 023°25'0 0.0
2018-Feb-16 09:00N 37°45' E 023°25'4 8.4
2018-Feb-16 08:31N 37°48' E 023°28'714.1
2018-Feb-16 08:01N 37°53' E 023°34'5 9.2
2018-Feb-16 07:30N 37°57' E 023°38'0 0.0
2018-Feb-16 06:58N 37°57' E 023°38'0 0.0
2018-Feb-16 06:30N 37°57' E 023°38'0 0.0
2018-Feb-15 14:56N 37°57' E 023°38'2 4.8
2018-Feb-15 14:30N 37°55' E 023°37'612.7
2018-Feb-15 14:00N 37°49' E 023°34'713.7
2018-Feb-15 13:30N 37°46' E 023°26'2 3.4
2018-Feb-15 13:00N 37°45' E 023°25'4 8.1
2018-Feb-15 12:30N 37°48' E 023°28'713.8
2018-Feb-15 12:01N 37°53' E 023°34'510.0
2018-Feb-15 11:31N 37°57' E 023°39'0 0.0
2018-Feb-15 11:01N 37°57' E 023°39'0 0.0
2018-Feb-15 10:31N 37°57' E 023°39'0 0.0
2018-Feb-15 10:01N 37°57' E 023°39'0 0.0
2018-Feb-15 09:30N 37°57' E 023°39'0 0.0
2018-Feb-15 09:01N 37°57' E 023°39'0 0.1
2018-Feb-15 08:31N 37°57' E 023°38'612.0
2018-Feb-15 08:00N 37°51' E 023°36'713.6
2018-Feb-15 07:30N 37°48' E 023°28'4 7.4
2018-Feb-15 07:00N 37°45' E 023°25'2 3.6
2018-Feb-15 06:30N 37°46' E 023°26'713.8
2018-Feb-15 06:00N 37°51' E 023°32'7 0.6
2018-Feb-14 18:14N 37°56' E 023°38'313.2
2018-Feb-14 18:00N 37°54' E 023°35'713.8
2018-Feb-14 17:30N 37°49' E 023°29'510.6
2018-Feb-14 17:01N 37°45' E 023°25'2 4.8
2018-Feb-14 16:30N 37°47' E 023°26'713.9
2018-Feb-14 16:00N 37°52' E 023°33'713.2
2018-Feb-14 15:30N 37°57' E 023°38'0 0.2
2018-Feb-14 15:00N 37°57' E 023°38'0 0.0
2018-Feb-14 14:30N 37°57' E 023°38'3 6.5
2018-Feb-14 14:00N 37°54' E 023°36'713.7
2018-Feb-14 13:30N 37°49' E 023°30'611.4
2018-Feb-14 13:00N 37°45' E 023°25'3 5.1
2018-Feb-14 12:30N 37°47' E 023°27'713.7
2018-Feb-14 12:01N 37°52' E 023°33'713.0
2018-Feb-14 11:30N 37°57' E 023°38'0 0.2
2018-Feb-14 11:00N 37°57' E 023°38'0 0.0
2018-Feb-14 10:30N 37°57' E 023°38'0 0.0
2018-Feb-14 10:00N 37°57' E 023°38'0 0.0
2018-Feb-14 09:30N 37°57' E 023°38'0 0.0
2018-Feb-14 09:00N 37°57' E 023°38'0 0.0
2018-Feb-14 08:30N 37°57' E 023°38'5 9.3
2018-Feb-14 08:00N 37°53' E 023°34'713.8
2018-Feb-14 07:30N 37°48' E 023°29'4 8.7
2018-Feb-14 07:00N 37°45' E 023°25'2 4.3
2018-Feb-14 06:31N 37°47' E 023°26'  

Dump ship's entire track history